DRP weather

Delta Regional Airport
Colt, Arkansas, United States

Public forecast

Using degrees Fahrenheit for public forecast. Weather courtesy of forecast.io.

Closest aviation weather report (METAR) to Delta Regional Airport

Closest report is West Memphis Municipal Airport, 29.1 nm (53.9 km) E. Retrieved 2020/08/07 10:53 UTC (58 minutes ago):

KAWM 071053Z AUTO 00000KT 10SM CLR 21/18 A3007 RMK AO2 SLP179 T02060183

Closest aviation forecast (TAF) to Delta Regional Airport

Closest forecast is Memphis International Airport, 42.0 nm (77.8 km) E. Retrieved 2020/08/07 06:22 UTC (5 hours ago):

TAF KMEM 070520Z 0706/0812 03006KT P6SM BKN250 FM071300 07004KT P6SM BKN250 FM071800 03005KT P6SM SCT250 FM080100 09004KT P6SM FEW250